sensor_id;sensor_type;location;lat;lon;timestamp;pressure;altitude;pressure_sealevel;temperature;humidity
38939;BME280;24211;49.980;19.776;2022-12-10T01:09:07;98034.13;;;2.48;100.00
38939;BME280;24211;49.980;19.776;2022-12-10T01:18:46;98037.41;;;2.50;100.00
38939;BME280;24211;49.980;19.776;2022-12-10T01:27:57;98049.94;;;2.48;100.00
38939;BME280;24211;49.980;19.776;2022-12-10T01:46:51;98057.66;;;2.43;100.00
38939;BME280;24211;49.980;19.776;2022-12-10T01:56:38;98056.06;;;2.42;100.00
38939;BME280;24211;49.980;19.776;2022-12-10T06:23:47;98204.06;;;2.26;100.00
38939;BME280;24211;49.980;19.776;2022-12-10T06:41:05;98229.25;;;2.35;100.00
38939;BME280;24211;49.980;19.776;2022-12-10T06:43:34;98249.31;;;2.36;100.00
38939;BME280;24211;49.980;19.776;2022-12-10T07:28:48;98295.38;;;2.40;100.00
38939;BME280;24211;49.980;19.776;2022-12-10T07:31:21;98299.84;;;2.40;100.00
38939;BME280;24211;49.980;19.776;2022-12-10T07:33:51;98302.66;;;2.38;100.00
38939;BME280;24211;49.980;19.776;2022-12-10T07:36:44;98295.78;;;2.37;100.00
38939;BME280;24211;49.980;19.776;2022-12-10T07:39:13;98303.69;;;2.37;100.00
38939;BME280;24211;49.980;19.776;2022-12-10T07:41:48;98292.91;;;2.39;100.00
38939;BME280;24211;49.980;19.776;2022-12-10T07:44:27;98291.31;;;2.38;100.00
38939;BME280;24211;49.980;19.776;2022-12-10T07:46:55;98283.19;;;2.39;100.00
38939;BME280;24211;49.980;19.776;2022-12-10T07:49:22;98280.16;;;2.42;100.00
38939;BME280;24211;49.980;19.776;2022-12-10T07:51:51;98272.25;;;2.42;100.00
38939;BME280;24211;49.980;19.776;2022-12-10T07:54:19;98279.56;;;2.40;100.00
38939;BME280;24211;49.980;19.776;2022-12-10T07:56:46;98277.94;;;2.39;100.00
38939;BME280;24211;49.980;19.776;2022-12-10T07:59:13;98275.91;;;2.41;100.00
38939;BME280;24211;49.980;19.776;2022-12-10T08:01:41;98281.56;;;2.38;100.00
38939;BME280;24211;49.980;19.776;2022-12-10T08:04:08;98285.22;;;2.37;100.00
38939;BME280;24211;49.980;19.776;2022-12-10T08:06:35;98295.78;;;2.37;100.00
38939;BME280;24211;49.980;19.776;2022-12-10T08:09:03;98295.38;;;2.40;100.00
38939;BME280;24211;49.980;19.776;2022-12-10T08:11:30;98299.63;;;2.41;100.00
38939;BME280;24211;49.980;19.776;2022-12-10T08:13:57;98306.72;;;2.41;100.00
38939;BME280;24211;49.980;19.776;2022-12-10T08:16:28;98312.44;;;2.44;100.00
38939;BME280;24211;49.980;19.776;2022-12-10T08:19:00;98320.34;;;2.44;100.00
38939;BME280;24211;49.980;19.776;2022-12-10T08:21:31;98324.63;;;2.45;100.00
38939;BME280;24211;49.980;19.776;2022-12-10T08:23:59;98326.22;;;2.46;100.00
38939;BME280;24211;49.980;19.776;2022-12-10T08:26:30;98324.19;;;2.48;100.00
38939;BME280;24211;49.980;19.776;2022-12-10T08:28:59;98327.84;;;2.47;100.00
38939;BME280;24211;49.980;19.776;2022-12-10T08:31:27;98316.50;;;2.47;100.00
38939;BME280;24211;49.980;19.776;2022-12-10T08:34:03;98324.78;;;2.44;100.00
38939;BME280;24211;49.980;19.776;2022-12-10T08:36:31;98320.34;;;2.44;100.00
38939;BME280;24211;49.980;19.776;2022-12-10T08:38:59;98321.34;;;2.43;100.00
38939;BME280;24211;49.980;19.776;2022-12-10T08:41:26;98322.97;;;2.44;100.00
38939;BME280;24211;49.980;19.776;2022-12-10T08:43:53;98322.97;;;2.44;100.00
38939;BME280;24211;49.980;19.776;2022-12-10T08:46:21;98324.19;;;2.48;100.00
38939;BME280;24211;49.980;19.776;2022-12-10T08:48:50;98329.47;;;2.48;100.00
38939;BME280;24211;49.980;19.776;2022-12-10T08:51:19;98320.56;;;2.49;100.00
38939;BME280;24211;49.980;19.776;2022-12-10T08:53:47;98320.56;;;2.49;100.00
38939;BME280;24211;49.980;19.776;2022-12-10T08:56:14;98311.00;;;2.48;100.00
38939;BME280;24211;49.980;19.776;2022-12-10T08:58:42;98318.91;;;2.48;100.00
38939;BME280;24211;49.980;19.776;2022-12-10T09:01:16;98312.03;;;2.47;100.00
38939;BME280;24211;49.980;19.776;2022-12-10T09:03:44;98312.44;;;2.51;100.00
38939;BME280;24211;49.980;19.776;2022-12-10T09:06:15;98315.06;;;2.51;100.00
38939;BME280;24211;49.980;19.776;2022-12-10T09:08:44;98322.97;;;2.51;100.00
38939;BME280;24211;49.980;19.776;2022-12-10T09:11:19;98328.47;;;2.49;100.00
38939;BME280;24211;49.980;19.776;2022-12-10T09:14:50;98321.38;;;2.50;100.00
38939;BME280;24211;49.980;19.776;2022-12-10T09:18:03;98319.34;;;2.52;100.00
38939;BME280;24211;49.980;19.776;2022-12-10T09:20:30;98307.97;;;2.51;100.00
38939;BME280;24211;49.980;19.776;2022-12-10T09:27:56;98302.09;;;2.49;100.00
38939;BME280;24211;49.980;19.776;2022-12-10T09:31:01;98305.34;;;2.51;100.00
38939;BME280;24211;49.980;19.776;2022-12-10T09:33:29;98305.34;;;2.51;100.00
38939;BME280;24211;49.980;19.776;2022-12-10T09:35:57;98305.94;;;2.53;100.00
38939;BME280;24211;49.980;19.776;2022-12-10T09:39:16;98307.59;;;2.54;100.00
38939;BME280;24211;49.980;19.776;2022-12-10T09:44:38;98297.47;;;2.58;100.00
38939;BME280;24211;49.980;19.776;2022-12-10T09:47:11;98302.75;;;2.58;100.00
38939;BME280;24211;49.980;19.776;2022-12-10T09:52:17;98298.69;;;2.69;100.00
38939;BME280;24211;49.980;19.776;2022-12-10T09:54:56;98301.94;;;2.71;100.00
38939;BME280;24211;49.980;19.776;2022-12-10T09:57:32;98304.19;;;2.67;100.00
38939;BME280;24211;49.980;19.776;2022-12-10T10:00:54;98295.84;;;2.63;100.00
38939;BME280;24211;49.980;19.776;2022-12-10T10:02:58;98301.13;;;2.63;100.00
38939;BME280;24211;49.980;19.776;2022-12-10T10:14:31;98288.97;;;2.62;100.00
38939;BME280;24211;49.980;19.776;2022-12-10T10:17:09;98296.66;;;2.64;100.00
38939;BME280;24211;49.980;19.776;2022-12-10T10:19:38;98291.38;;;2.64;100.00
38939;BME280;24211;49.980;19.776;2022-12-10T10:22:10;98287.94;;;2.63;100.00
38939;BME280;24211;49.980;19.776;2022-12-10T10:24:43;98294.25;;;2.62;100.00
38939;BME280;24211;49.980;19.776;2022-12-10T10:27:25;98284.69;;;2.61;100.00
38939;BME280;24211;49.980;19.776;2022-12-10T10:29:58;98297.66;;;2.63;100.00
38939;BME280;24211;49.980;19.776;2022-12-10T10:35:33;98287.75;;;2.65;100.00
38939;BME280;24211;49.980;19.776;2022-12-10T10:42:40;98276.38;;;2.64;100.00
38939;BME280;24211;49.980;19.776;2022-12-10T10:45:41;98277.00;;;2.67;100.00
38939;BME280;24211;49.980;19.776;2022-12-10T10:48:21;98277.59;;;2.69;100.00
38939;BME280;24211;49.980;19.776;2022-12-10T10:50:54;98276.78;;;2.68;100.00
38939;BME280;24211;49.980;19.776;2022-12-10T10:53:30;98293.41;;;2.69;100.00
38939;BME280;24211;49.980;19.776;2022-12-10T10:56:19;98288.16;;;2.69;100.00
38939;BME280;24211;49.980;19.776;2022-12-10T11:01:56;98293.41;;;2.69;100.00
38939;BME280;24211;49.980;19.776;2022-12-10T11:04:46;98295.44;;;2.67;100.00
38939;BME280;24211;49.980;19.776;2022-12-10T11:07:32;98293.41;;;2.69;100.00
38939;BME280;24211;49.980;19.776;2022-12-10T11:15:02;98288.56;;;2.79;100.00
38939;BME280;24211;49.980;19.776;2022-12-10T11:17:29;98291.44;;;2.77;100.00
38939;BME280;24211;49.980;19.776;2022-12-10T11:20:23;98297.91;;;2.75;100.00
38939;BME280;24211;49.980;19.776;2022-12-10T11:25:34;98291.41;;;2.71;100.00
38939;BME280;24211;49.980;19.776;2022-12-10T11:28:38;98298.69;;;2.69;100.00
38939;BME280;24211;49.980;19.776;2022-12-10T11:34:25;98298.53;;;2.77;100.00
38939;BME280;24211;49.980;19.776;2022-12-10T11:37:16;98293.03;;;2.78;100.00
38939;BME280;24211;49.980;19.776;2022-12-10T11:49:44;98291.81;;;2.68;100.00
38939;BME280;24211;49.980;19.776;2022-12-10T11:52:51;98284.91;;;2.67;100.00
38939;BME280;24211;49.980;19.776;2022-12-10T11:55:50;98286.53;;;2.68;100.00
38939;BME280;24211;49.980;19.776;2022-12-10T11:58:46;98284.91;;;2.67;100.00
38939;BME280;24211;49.980;19.776;2022-12-10T12:02:16;98292.22;;;2.64;100.00
38939;BME280;24211;49.980;19.776;2022-12-10T12:05:10;98283.25;;;2.65;100.00
38939;BME280;24211;49.980;19.776;2022-12-10T12:13:31;98285.69;;;2.60;100.00
38939;BME280;24211;49.980;19.776;2022-12-10T12:16:06;98287.31;;;2.61;100.00
38939;BME280;24211;49.980;19.776;2022-12-10T12:18:53;98290.97;;;2.60;100.00
38939;BME280;24211;49.980;19.776;2022-12-10T12:21:23;98292.59;;;2.61;100.00
38939;BME280;24211;49.980;19.776;2022-12-10T12:24:19;98282.25;;;2.60;100.00
38939;BME280;24211;49.980;19.776;2022-12-10T12:27:02;98281.44;;;2.59;100.00
38939;BME280;24211;49.980;19.776;2022-12-10T12:29:43;98284.06;;;2.59;100.00
38939;BME280;24211;49.980;19.776;2022-12-10T12:32:21;98273.53;;;2.59;100.00
38939;BME280;24211;49.980;19.776;2022-12-10T12:35:04;98265.81;;;2.58;100.00
38939;BME280;24211;49.980;19.776;2022-12-10T12:37:42;98271.28;;;2.56;100.00
38939;BME280;24211;49.980;19.776;2022-12-10T12:40:40;98267.44;;;2.59;100.00
38939;BME280;24211;49.980;19.776;2022-12-10T12:43:21;98271.88;;;2.58;100.00
38939;BME280;24211;49.980;19.776;2022-12-10T12:45:54;98277.16;;;2.58;100.00
38939;BME280;24211;49.980;19.776;2022-12-10T12:49:10;98276.38;;;2.58;100.00
38939;BME280;24211;49.980;19.776;2022-12-10T12:51:50;98287.72;;;2.58;100.00
38939;BME280;24211;49.980;19.776;2022-12-10T12:54:19;98290.97;;;2.60;100.00
38939;BME280;24211;49.980;19.776;2022-12-10T12:56:58;98288.13;;;2.62;100.00
38939;BME280;24211;49.980;19.776;2022-12-10T13:00:01;98273.13;;;2.62;100.00
38939;BME280;24211;49.980;19.776;2022-12-10T13:03:07;98269.47;;;2.63;100.00
38939;BME280;24211;49.980;19.776;2022-12-10T13:05:45;98278.81;;;2.59;100.00
38939;BME280;24211;49.980;19.776;2022-12-10T13:14:03;98300.28;;;2.56;100.00
38939;BME280;24211;49.980;19.776;2022-12-10T13:22:05;98305.56;;;2.56;100.00
38939;BME280;24211;49.980;19.776;2022-12-10T13:27:32;98308.03;;;2.64;100.00
38939;BME280;24211;49.980;19.776;2022-12-10T13:47:00;98312.47;;;2.57;100.00
38939;BME280;24211;49.980;19.776;2022-12-10T13:49:54;98309.22;;;2.55;100.00
38939;BME280;24211;49.980;19.776;2022-12-10T13:52:30;98313.88;;;2.53;100.00
38939;BME280;24211;49.980;19.776;2022-12-10T13:55:24;98316.09;;;2.50;100.00
38939;BME280;24211;49.980;19.776;2022-12-10T14:06:51;98326.59;;;2.43;100.00
38939;BME280;24211;49.980;19.776;2022-12-10T14:09:25;98334.50;;;2.43;100.00
38939;BME280;24211;49.980;19.776;2022-12-10T14:12:12;98346.91;;;2.43;100.00
38939;BME280;24211;49.980;19.776;2022-12-10T14:15:04;98346.09;;;2.42;100.00
38939;BME280;24211;49.980;19.776;2022-12-10T14:17:38;98343.22;;;2.37;100.00
38939;BME280;24211;49.980;19.776;2022-12-10T14:20:15;98342.00;;;2.33;100.00
38939;BME280;24211;49.980;19.776;2022-12-10T14:22:50;98339.97;;;2.35;100.00
38939;BME280;24211;49.980;19.776;2022-12-10T14:25:21;98341.59;;;2.36;100.00
38939;BME280;24211;49.980;19.776;2022-12-10T14:27:52;98343.03;;;2.39;100.00
38939;BME280;24211;49.980;19.776;2022-12-10T14:30:23;98342.41;;;2.37;100.00
38939;BME280;24211;49.980;19.776;2022-12-10T14:32:54;98338.94;;;2.36;100.00
38939;BME280;24211;49.980;19.776;2022-12-10T14:35:26;98328.22;;;2.38;100.00
38939;BME280;24211;49.980;19.776;2022-12-10T14:37:58;98324.16;;;2.35;100.00
38939;BME280;24211;49.980;19.776;2022-12-10T14:40:39;98331.03;;;2.36;100.00
38939;BME280;24211;49.980;19.776;2022-12-10T14:43:29;98319.50;;;2.37;100.00
38939;BME280;24211;49.980;19.776;2022-12-10T14:46:00;98322.13;;;2.37;100.00
38939;BME280;24211;49.980;19.776;2022-12-10T14:48:29;98327.81;;;2.41;100.00
38939;BME280;24211;49.980;19.776;2022-12-10T14:51:03;98330.88;;;2.44;100.00
38939;BME280;24211;49.980;19.776;2022-12-10T14:53:31;98334.34;;;2.45;100.00
38939;BME280;24211;49.980;19.776;2022-12-10T14:56:03;98345.28;;;2.42;100.00
38939;BME280;24211;49.980;19.776;2022-12-10T14:58:47;98341.59;;;2.36;100.00
38939;BME280;24211;49.980;19.776;2022-12-10T15:03:56;98344.00;;;2.31;100.00
38939;BME280;24211;49.980;19.776;2022-12-10T15:06:25;98331.84;;;2.30;100.00
38939;BME280;24211;49.980;19.776;2022-12-10T15:08:57;98339.13;;;2.28;100.00
38939;BME280;24211;49.980;19.776;2022-12-10T15:11:27;98341.94;;;2.20;100.00
38939;BME280;24211;49.980;19.776;2022-12-10T15:13:59;98341.31;;;2.18;100.00
38939;BME280;24211;49.980;19.776;2022-12-10T15:16:41;98339.91;;;2.22;100.00
38939;BME280;24211;49.980;19.776;2022-12-10T15:22:21;98335.09;;;2.32;100.00
38939;BME280;24211;49.980;19.776;2022-12-10T15:24:49;98335.31;;;2.31;100.00
38939;BME280;24211;49.980;19.776;2022-12-10T15:27:23;98340.56;;;2.31;100.00
38939;BME280;24211;49.980;19.776;2022-12-10T15:29:51;98352.13;;;2.36;100.00
38939;BME280;24211;49.980;19.776;2022-12-10T15:32:27;98356.25;;;2.45;100.00
38939;BME280;24211;49.980;19.776;2022-12-10T15:35:00;98363.13;;;2.46;100.00
38939;BME280;24211;49.980;19.776;2022-12-10T15:37:34;98365.53;;;2.41;100.00
38939;BME280;24211;49.980;19.776;2022-12-10T15:40:29;98364.53;;;2.36;100.00
38939;BME280;24211;49.980;19.776;2022-12-10T15:45:50;98357.19;;;2.31;100.00
38939;BME280;24211;49.980;19.776;2022-12-10T15:48:17;98357.00;;;2.33;100.00
38939;BME280;24211;49.980;19.776;2022-12-10T15:50:45;98353.34;;;2.34;100.00
38939;BME280;24211;49.980;19.776;2022-12-10T15:53:25;98350.69;;;2.34;100.00
38939;BME280;24211;49.980;19.776;2022-12-10T15:56:02;98347.66;;;2.30;100.00
38939;BME280;24211;49.980;19.776;2022-12-10T15:58:29;98351.69;;;2.26;100.00
38939;BME280;24211;49.980;19.776;2022-12-10T16:00:57;98355.34;;;2.25;100.00
38939;BME280;24211;49.980;19.776;2022-12-10T16:03:28;98353.47;;;2.19;100.00
38939;BME280;24211;49.980;19.776;2022-12-10T16:05:56;98354.50;;;2.18;100.00
38939;BME280;24211;49.980;19.776;2022-12-10T16:08:27;98354.72;;;2.23;100.00
38939;BME280;24211;49.980;19.776;2022-12-10T16:11:01;98351.88;;;2.25;100.00
38939;BME280;24211;49.980;19.776;2022-12-10T16:13:35;98351.03;;;2.18;100.00
38939;BME280;24211;49.980;19.776;2022-12-10T16:16:08;98347.34;;;2.12;100.00
38939;BME280;24211;49.980;19.776;2022-12-10T16:18:36;98344.47;;;2.07;100.00
38939;BME280;24211;49.980;19.776;2022-12-10T16:21:06;98344.31;;;2.09;100.00
38939;BME280;24211;49.980;19.776;2022-12-10T16:23:35;98338.59;;;2.05;100.00
38939;BME280;24211;49.980;19.776;2022-12-10T16:26:17;98345.09;;;2.09;100.00
38939;BME280;24211;49.980;19.776;2022-12-10T16:28:46;98345.44;;;1.99;100.00
38939;BME280;24211;49.980;19.776;2022-12-10T16:31:17;98346.72;;;2.04;100.00
38939;BME280;24211;49.980;19.776;2022-12-10T16:33:46;98341.84;;;2.07;100.00
38939;BME280;24211;49.980;19.776;2022-12-10T16:36:15;98336.56;;;2.07;100.00
38939;BME280;24211;49.980;19.776;2022-12-10T16:38:42;98334.78;;;2.14;100.00
38939;BME280;24211;49.980;19.776;2022-12-10T16:41:22;98333.78;;;2.15;100.00
38939;BME280;24211;49.980;19.776;2022-12-10T16:43:50;98329.50;;;2.14;100.00
38939;BME280;24211;49.980;19.776;2022-12-10T16:46:17;98337.44;;;2.14;100.00
38939;BME280;24211;49.980;19.776;2022-12-10T16:48:44;98336.19;;;2.10;100.00
38939;BME280;24211;49.980;19.776;2022-12-10T16:51:26;98328.66;;;2.07;100.00
38939;BME280;24211;49.980;19.776;2022-12-10T16:53:56;98330.47;;;2.07;100.00
38939;BME280;24211;49.980;19.776;2022-12-10T16:56:24;98337.84;;;2.11;100.00
38939;BME280;24211;49.980;19.776;2022-12-10T16:58:52;98338.84;;;2.10;100.00
38939;BME280;24211;49.980;19.776;2022-12-10T17:01:23;98340.25;;;2.13;100.00
38939;BME280;24211;49.980;19.776;2022-12-10T17:03:51;98342.69;;;2.14;100.00
38939;BME280;24211;49.980;19.776;2022-12-10T17:06:20;98334.78;;;2.14;100.00
38939;BME280;24211;49.980;19.776;2022-12-10T17:08:51;98343.50;;;2.15;100.00
38939;BME280;24211;49.980;19.776;2022-12-10T17:11:27;98337.41;;;2.08;100.00
38939;BME280;24211;49.980;19.776;2022-12-10T17:16:48;98336.19;;;2.10;100.00
38939;BME280;24211;49.980;19.776;2022-12-10T17:19:16;98341.00;;;2.00;100.00
38939;BME280;24211;49.980;19.776;2022-12-10T17:21:44;98349.13;;;2.05;100.00
38939;BME280;24211;49.980;19.776;2022-12-10T17:24:11;98341.47;;;2.10;100.00
38939;BME280;24211;49.980;19.776;2022-12-10T17:26:43;98334.19;;;2.12;100.00
38939;BME280;24211;49.980;19.776;2022-12-10T17:29:23;98321.38;;;2.09;100.00
38939;BME280;24211;49.980;19.776;2022-12-10T17:31:51;98325.66;;;2.10;100.00
38939;BME280;24211;49.980;19.776;2022-12-10T17:34:18;98324.00;;;2.09;100.00
38939;BME280;24211;49.980;19.776;2022-12-10T17:36:48;98326.28;;;2.12;100.00
38939;BME280;24211;49.980;19.776;2022-12-10T17:39:17;98320.38;;;2.10;100.00
38939;BME280;24211;49.980;19.776;2022-12-10T17:41:49;98315.13;;;2.10;100.00
38939;BME280;24211;49.980;19.776;2022-12-10T17:44:17;98327.09;;;2.13;100.00
38939;BME280;24211;49.980;19.776;2022-12-10T17:46:45;98321.81;;;2.13;100.00
38939;BME280;24211;49.980;19.776;2022-12-10T17:49:15;98322.63;;;2.13;100.00
38939;BME280;24211;49.980;19.776;2022-12-10T17:51:44;98317.53;;;2.12;100.00
38939;BME280;24211;49.980;19.776;2022-12-10T17:54:12;98308.63;;;2.06;100.00
38939;BME280;24211;49.980;19.776;2022-12-10T17:56:41;98306.59;;;2.08;100.00
38939;BME280;24211;49.980;19.776;2022-12-10T17:59:13;98308.84;;;2.11;100.00
38939;BME280;24211;49.980;19.776;2022-12-10T18:01:42;98309.84;;;2.10;100.00
38939;BME280;24211;49.980;19.776;2022-12-10T18:04:14;98323.22;;;2.09;100.00
38939;BME280;24211;49.980;19.776;2022-12-10T18:06:42;98317.13;;;2.08;100.00
38939;BME280;24211;49.980;19.776;2022-12-10T18:09:10;98319.91;;;2.00;100.00
38939;BME280;24211;49.980;19.776;2022-12-10T18:11:40;98314.28;;;2.03;100.00
38939;BME280;24211;49.980;19.776;2022-12-10T18:14:10;98308.31;;;1.88;100.00
38939;BME280;24211;49.980;19.776;2022-12-10T18:16:37;98316.44;;;1.93;100.00
38939;BME280;24211;49.980;19.776;2022-12-10T18:19:14;98315.66;;;1.99;100.00
38939;BME280;24211;49.980;19.776;2022-12-10T18:21:42;98322.78;;;2.05;100.00
38939;BME280;24211;49.980;19.776;2022-12-10T18:24:10;98315.50;;;2.07;100.00
38939;BME280;24211;49.980;19.776;2022-12-10T18:26:37;98310.22;;;2.07;100.00
38939;BME280;24211;49.980;19.776;2022-12-10T18:29:04;98322.78;;;2.05;100.00
38939;BME280;24211;49.980;19.776;2022-12-10T18:31:35;98317.50;;;1.98;100.00
38939;BME280;24211;49.980;19.776;2022-12-10T18:34:06;98318.69;;;1.96;100.00
38939;BME280;24211;49.980;19.776;2022-12-10T18:36:41;98317.66;;;1.97;100.00
38939;BME280;24211;49.980;19.776;2022-12-10T18:39:22;98317.84;;;1.89;100.00
38939;BME280;24211;49.980;19.776;2022-12-10T18:41:52;98308.53;;;1.93;100.00
38939;BME280;24211;49.980;19.776;2022-12-10T18:44:23;98315.66;;;1.99;100.00
38939;BME280;24211;49.980;19.776;2022-12-10T18:46:53;98317.72;;;2.04;100.00
38939;BME280;24211;49.980;19.776;2022-12-10T18:49:21;98317.13;;;2.08;100.00
38939;BME280;24211;49.980;19.776;2022-12-10T18:51:50;98322.19;;;2.10;100.00
38939;BME280;24211;49.980;19.776;2022-12-10T18:54:17;98322.41;;;2.08;100.00
38939;BME280;24211;49.980;19.776;2022-12-10T18:56:45;98327.69;;;2.08;100.00
38939;BME280;24211;49.980;19.776;2022-12-10T18:59:32;98329.06;;;2.04;100.00
38939;BME280;24211;49.980;19.776;2022-12-10T19:01:59;98332.50;;;2.05;100.00
38939;BME280;24211;49.980;19.776;2022-12-10T19:04:26;98328.81;;;1.99;100.00
38939;BME280;24211;49.980;19.776;2022-12-10T19:06:53;98326.84;;;2.01;100.00
38939;BME280;24211;49.980;19.776;2022-12-10T19:09:20;98319.53;;;2.03;100.00
38939;BME280;24211;49.980;19.776;2022-12-10T19:11:48;98318.63;;;1.89;100.00
38939;BME280;24211;49.980;19.776;2022-12-10T19:14:19;98318.69;;;1.96;100.00
38939;BME280;24211;49.980;19.776;2022-12-10T19:16:47;98325.63;;;2.04;100.00
38939;BME280;24211;49.980;19.776;2022-12-10T19:19:16;98322.78;;;2.05;100.00
38939;BME280;24211;49.980;19.776;2022-12-10T19:21:45;98317.13;;;2.08;100.00
38939;BME280;24211;49.980;19.776;2022-12-10T19:24:13;98330.31;;;2.08;100.00
38939;BME280;24211;49.980;19.776;2022-12-10T19:26:42;98319.91;;;2.00;100.00
38939;BME280;24211;49.980;19.776;2022-12-10T19:29:16;98324.19;;;2.01;100.00
38939;BME280;24211;49.980;19.776;2022-12-10T19:31:45;98333.72;;;2.02;100.00
38939;BME280;24211;49.980;19.776;2022-12-10T19:34:14;98328.66;;;2.07;100.00
38939;BME280;24211;49.980;19.776;2022-12-10T19:36:43;98330.09;;;2.10;100.00
38939;BME280;24211;49.980;19.776;2022-12-10T19:39:23;98331.69;;;2.04;100.00
38939;BME280;24211;49.980;19.776;2022-12-10T19:41:52;98331.56;;;1.84;100.00
38939;BME280;24211;49.980;19.776;2022-12-10T19:44:21;98323.88;;;1.83;100.00
38939;BME280;24211;49.980;19.776;2022-12-10T19:46:49;98333.66;;;1.89;100.00
38939;BME280;24211;49.980;19.776;2022-12-10T19:49:18;98326.59;;;1.96;100.00
38939;BME280;24211;49.980;19.776;2022-12-10T19:51:46;98322.34;;;2.02;100.00
38939;BME280;24211;49.980;19.776;2022-12-10T19:54:14;98323.34;;;1.94;100.00
38939;BME280;24211;49.980;19.776;2022-12-10T19:56:42;98325.22;;;1.72;100.00
38939;BME280;24211;49.980;19.776;2022-12-10T19:59:16;98325.50;;;1.84;100.00
38939;BME280;24211;49.980;19.776;2022-12-10T20:01:44;98325.53;;;1.90;100.00
38939;BME280;24211;49.980;19.776;2022-12-10T20:04:13;98320.28;;;1.90;100.00
38939;BME280;24211;49.980;19.776;2022-12-10T20:06:44;98315.72;;;1.78;100.00
38939;BME280;24211;49.980;19.776;2022-12-10T20:09:17;98305.19;;;1.78;100.00
38939;BME280;24211;49.980;19.776;2022-12-10T20:11:46;98306.50;;;1.88;100.00
38939;BME280;24211;49.980;19.776;2022-12-10T20:14:14;98297.38;;;1.91;100.00
38939;BME280;24211;49.980;19.776;2022-12-10T20:16:42;98296.53;;;1.84;100.00
38939;BME280;24211;49.980;19.776;2022-12-10T20:19:12;98289.84;;;1.81;100.00
38939;BME280;24211;49.980;19.776;2022-12-10T20:21:41;98292.66;;;1.80;100.00
38939;BME280;24211;49.980;19.776;2022-12-10T20:24:09;98282.19;;;1.59;100.00
38939;BME280;24211;49.980;19.776;2022-12-10T20:26:44;98277.16;;;1.64;100.00
38939;BME280;24211;49.980;19.776;2022-12-10T20:29:23;98279.06;;;1.76;100.00
38939;BME280;24211;49.980;19.776;2022-12-10T20:31:54;98279.25;;;1.75;100.00
38939;BME280;24211;49.980;19.776;2022-12-10T20:34:24;98286.53;;;1.73;100.00
38939;BME280;24211;49.980;19.776;2022-12-10T20:36:52;98286.28;;;1.68;100.00
38939;BME280;24211;49.980;19.776;2022-12-10T20:39:29;98276.84;;;1.80;100.00
38939;BME280;24211;49.980;19.776;2022-12-10T20:41:57;98279.66;;;1.72;100.00
38939;BME280;24211;49.980;19.776;2022-12-10T20:44:27;98278.84;;;1.78;100.00
38939;BME280;24211;49.980;19.776;2022-12-10T20:46:55;98276.22;;;1.78;100.00
38939;BME280;24211;49.980;19.776;2022-12-10T20:49:25;98283.13;;;1.79;100.00
38939;BME280;24211;49.980;19.776;2022-12-10T20:51:53;98279.66;;;1.72;100.00
38939;BME280;24211;49.980;19.776;2022-12-10T20:54:20;98280.03;;;1.69;100.00
38939;BME280;24211;49.980;19.776;2022-12-10T20:56:48;98279.78;;;1.64;100.00
38939;BME280;24211;49.980;19.776;2022-12-10T20:59:16;98279.09;;;1.49;100.00
38939;BME280;24211;49.980;19.776;2022-12-10T21:01:44;98273.56;;;1.44;100.00
38939;BME280;24211;49.980;19.776;2022-12-10T21:04:11;98260.97;;;1.33;100.00
38939;BME280;24211;49.980;19.776;2022-12-10T21:06:41;98264.50;;;1.53;100.00
38939;BME280;24211;49.980;19.776;2022-12-10T21:09:12;98252.78;;;1.55;100.00
38939;BME280;24211;49.980;19.776;2022-12-10T21:11:40;98258.03;;;1.49;100.00
38939;BME280;24211;49.980;19.776;2022-12-10T21:14:07;98255.84;;;1.59;100.00
38939;BME280;24211;49.980;19.776;2022-12-10T21:16:54;98254.53;;;1.76;100.00
38939;BME280;24211;49.980;19.776;2022-12-10T21:19:25;98256.84;;;1.58;100.00
38939;BME280;24211;49.980;19.776;2022-12-10T21:21:52;98250.38;;;1.54;100.00
38939;BME280;24211;49.980;19.776;2022-12-10T21:24:19;98253.69;;;1.69;100.00
38939;BME280;24211;49.980;19.776;2022-12-10T21:26:47;98261.75;;;1.61;100.00
38939;BME280;24211;49.980;19.776;2022-12-10T21:29:14;98252.84;;;1.62;100.00
38939;BME280;24211;49.980;19.776;2022-12-10T21:31:41;98267.31;;;1.45;100.00
38939;BME280;24211;49.980;19.776;2022-12-10T21:34:08;98276.19;;;1.37;100.00
38939;BME280;24211;49.980;19.776;2022-12-10T21:36:36;98282.16;;;1.24;100.00
38939;BME280;24211;49.980;19.776;2022-12-10T21:39:03;98274.13;;;1.33;100.00
38939;BME280;24211;49.980;19.776;2022-12-10T21:41:31;98278.13;;;1.28;100.00
38939;BME280;24211;49.980;19.776;2022-12-10T21:44:17;98270.19;;;1.50;100.00
38939;BME280;24211;49.980;19.776;2022-12-10T21:46:44;98271.72;;;1.38;100.00
38939;BME280;24211;49.980;19.776;2022-12-10T21:49:11;98272.47;;;1.31;100.00
38939;BME280;24211;49.980;19.776;2022-12-10T21:51:39;98268.63;;;1.27;100.00
38939;BME280;24211;49.980;19.776;2022-12-10T21:54:07;98271.72;;;1.38;100.00
38939;BME280;24211;49.980;19.776;2022-12-10T21:56:35;98265.06;;;1.42;100.00
38939;BME280;24211;49.980;19.776;2022-12-10T21:59:02;98267.16;;;1.53;100.00
38939;BME280;24211;49.980;19.776;2022-12-10T22:01:30;98255.59;;;1.47;100.00
38939;BME280;24211;49.980;19.776;2022-12-10T22:03:57;98254.47;;;1.63;100.00
38939;BME280;24211;49.980;19.776;2022-12-10T22:06:27;98263.41;;;1.68;100.00
38939;BME280;24211;49.980;19.776;2022-12-10T22:08:55;98254.91;;;1.66;100.00
38939;BME280;24211;49.980;19.776;2022-12-10T22:11:23;98253.31;;;1.72;100.00
38939;BME280;24211;49.980;19.776;2022-12-10T22:13:54;98253.69;;;1.69;100.00
38939;BME280;24211;49.980;19.776;2022-12-10T22:16:22;98252.13;;;1.81;100.00
38939;BME280;24211;49.980;19.776;2022-12-10T22:18:50;98249.97;;;1.57;100.00